createdAt,value
2023-01-07T00:02:09.159Z,93312.34
2023-01-07T00:04:39.083Z,93307.94
2023-01-07T00:07:11.945Z,93314.81
2023-01-07T00:09:42.005Z,93307.22
2023-01-07T00:12:12.762Z,93311.50
2023-01-07T00:14:42.810Z,93313.38
2023-01-07T00:17:12.804Z,93309.97
2023-01-07T00:19:42.990Z,93305.03
2023-01-07T00:22:16.095Z,93312.00
2023-01-07T00:24:48.078Z,93317.16
2023-01-07T00:27:18.043Z,93316.34
2023-01-07T00:29:48.061Z,93306.91
2023-01-07T00:32:17.961Z,93313.00
2023-01-07T00:34:47.825Z,93308.72
2023-01-07T00:37:36.224Z,93308.22
2023-01-07T00:40:06.624Z,93322.88
2023-01-07T00:42:53.892Z,93314.53
2023-01-07T00:45:24.077Z,93305.22
2023-01-07T00:50:46.398Z,93311.22
2023-01-07T00:53:16.560Z,93313.78
2023-01-07T00:55:46.757Z,93302.69
2023-01-07T00:58:24.220Z,93310.38
2023-01-07T01:00:58.483Z,93320.59
2023-01-07T01:03:30.641Z,93318.91
2023-01-07T01:06:07.045Z,93309.50
2023-01-07T01:08:37.041Z,93313.91
2023-01-07T01:11:08.320Z,93307.22
2023-01-07T01:13:39.300Z,93314.91
2023-01-07T01:16:14.980Z,93313.22
2023-01-07T01:18:45.555Z,93317.44
2023-01-07T01:21:19.272Z,93312.22
2023-01-07T01:23:49.243Z,93314.00
2023-01-07T01:26:20.185Z,93316.63
2023-01-07T01:28:50.326Z,93319.06
2023-01-07T01:31:20.236Z,93319.94
2023-01-07T01:33:50.146Z,93319.22
2023-01-07T01:36:21.508Z,93315.94
2023-01-07T01:38:51.418Z,93304.97
2023-01-07T01:41:21.536Z,93298.22
2023-01-07T01:43:51.998Z,93299.06
2023-01-07T01:46:33.026Z,93306.56
2023-01-07T01:49:06.703Z,93309.88
2023-01-07T01:51:43.469Z,93303.06
2023-01-07T01:54:16.925Z,93307.38
2023-01-07T01:56:51.804Z,93308.25
2023-01-07T01:59:26.125Z,93310.75
2023-01-07T02:01:56.177Z,93315.25
2023-01-07T02:04:28.960Z,93314.41
2023-01-07T02:07:13.858Z,93329.00
2023-01-07T02:09:43.644Z,93326.38
2023-01-07T02:12:23.873Z,93324.56
2023-01-07T02:15:11.722Z,93324.50
2023-01-07T02:18:11.669Z,93326.41
2023-01-07T02:21:02.764Z,93322.34
2023-01-07T02:24:15.904Z,93325.81
2023-01-07T02:27:23.798Z,93331.88
2023-01-07T02:30:33.658Z,93321.78
2023-01-07T02:33:28.959Z,93320.09
2023-01-07T02:36:47.903Z,93318.47
2023-01-07T02:39:42.360Z,93315.16
2023-01-07T02:42:27.778Z,93309.16
2023-01-07T02:45:07.117Z,93313.41
2023-01-07T02:47:40.824Z,93312.63
2023-01-07T02:50:12.580Z,93322.91
2023-01-07T02:52:42.485Z,93314.38
2023-01-07T02:55:16.862Z,93314.34
2023-01-07T02:58:33.355Z,93313.25
2023-01-07T03:01:43.729Z,93309.06
2023-01-07T03:04:34.527Z,93323.56
2023-01-07T03:07:30.402Z,93322.84
2023-01-07T03:10:08.079Z,93319.50
2023-01-07T03:12:42.925Z,93313.59
2023-01-07T03:15:20.467Z,93319.56
2023-01-07T03:17:57.698Z,93319.50
2023-01-07T03:20:28.313Z,93321.13
2023-01-07T03:23:01.065Z,93324.63
2023-01-07T03:25:36.426Z,93313.56
2023-01-07T03:28:09.163Z,93310.09
2023-01-07T03:30:40.575Z,93318.59
2023-01-07T03:33:17.098Z,93319.50
2023-01-07T03:35:51.585Z,93319.59
2023-01-07T03:38:25.725Z,93315.41
2023-01-07T03:40:57.610Z,93319.59
2023-01-07T03:43:26.258Z,93311.00
2023-01-07T03:45:58.646Z,93312.72
2023-01-07T03:51:46.402Z,93316.44
2023-01-07T03:54:16.979Z,93319.06
2023-01-07T03:56:46.944Z,93313.94
2023-01-07T03:59:16.885Z,93319.88
2023-01-07T04:01:46.876Z,93329.13
2023-01-07T04:04:16.790Z,93329.06
2023-01-07T04:06:48.240Z,93328.06
2023-01-07T04:09:19.365Z,93325.50
2023-01-07T04:11:49.229Z,93328.06
2023-01-07T04:14:19.117Z,93336.66
2023-01-07T04:16:51.513Z,93337.56
2023-01-07T04:19:22.042Z,93334.22
2023-01-07T04:21:53.497Z,93335.06
2023-01-07T04:24:23.365Z,93332.53
2023-01-07T04:26:53.122Z,93338.53
2023-01-07T04:29:22.877Z,93346.13
2023-01-07T04:31:52.878Z,93335.00
2023-01-07T04:34:22.782Z,93344.31
2023-01-07T04:36:54.218Z,93332.25
2023-01-07T04:39:24.063Z,93335.75
2023-01-07T04:41:53.990Z,93341.00
2023-01-07T04:44:23.748Z,93347.09
2023-01-07T04:46:53.513Z,93336.13
2023-01-07T04:49:23.366Z,93333.63
2023-01-07T04:51:54.730Z,93343.00
2023-01-07T04:54:24.559Z,93348.16
2023-01-07T04:56:54.683Z,93341.31
2023-01-07T04:59:24.606Z,93347.22
2023-01-07T05:01:54.593Z,93353.13
2023-01-07T05:04:24.386Z,93347.19
2023-01-07T05:06:55.890Z,93348.91
2023-01-07T05:09:25.723Z,93351.47
2023-01-07T05:11:55.664Z,93351.59
2023-01-07T05:14:25.546Z,93350.91
2023-01-07T05:16:55.541Z,93360.28
2023-01-07T05:19:25.470Z,93367.03
2023-01-07T05:21:56.838Z,93365.22
2023-01-07T05:24:26.799Z,93356.84
2023-01-07T05:26:56.765Z,93357.81
2023-01-07T05:29:26.618Z,93366.38
2023-01-07T05:31:56.505Z,93359.56
2023-01-07T05:34:26.487Z,93368.09
2023-01-07T05:36:57.884Z,93369.81
2023-01-07T05:39:28.251Z,93368.97
2023-01-07T05:41:58.260Z,93368.84
2023-01-07T05:44:28.085Z,93362.19
2023-01-07T05:46:57.915Z,93362.25
2023-01-07T05:49:27.722Z,93360.63
2023-01-07T05:51:59.126Z,93367.47
2023-01-07T05:54:28.923Z,93364.78
2023-01-07T05:56:58.858Z,93364.81
2023-01-07T05:59:28.677Z,93372.53
2023-01-07T06:01:58.544Z,93379.19
2023-01-07T06:04:28.263Z,93377.47
2023-01-07T06:06:59.678Z,93384.34
2023-01-07T06:09:30.358Z,93387.78
2023-01-07T06:12:00.590Z,93389.53
2023-01-07T06:14:30.453Z,93378.47
2023-01-07T06:17:00.338Z,93380.91
2023-01-07T06:19:30.188Z,93380.00
2023-01-07T06:22:01.538Z,93381.75
2023-01-07T06:24:31.427Z,93389.28
2023-01-07T06:27:01.158Z,93388.41
2023-01-07T06:29:30.861Z,93390.97
2023-01-07T06:32:01.161Z,93378.00
2023-01-07T06:34:31.081Z,93382.97
2023-01-07T06:37:02.540Z,93383.66
2023-01-07T06:39:32.426Z,93389.34
2023-01-07T06:42:02.409Z,93406.09
2023-01-07T06:44:32.348Z,93393.06
2023-01-07T06:47:02.145Z,93391.28
2023-01-07T06:51:46.089Z,93386.66
2023-01-07T06:54:16.056Z,93387.38
2023-01-07T06:56:45.860Z,93388.84
2023-01-07T06:59:15.990Z,93386.97
2023-01-07T07:01:46.778Z,93397.06
2023-01-07T07:04:16.699Z,93390.78
2023-01-07T07:06:48.069Z,93388.78
2023-01-07T07:09:18.045Z,93391.91
2023-01-07T07:11:47.746Z,93389.88
2023-01-07T07:14:17.678Z,93396.28
2023-01-07T07:16:47.462Z,93398.47
2023-01-07T07:19:17.287Z,93395.41
2023-01-07T07:21:49.916Z,93396.66
2023-01-07T07:24:19.924Z,93396.19
2023-01-07T07:26:49.889Z,93396.44
2023-01-07T07:29:21.736Z,93384.72
2023-01-07T07:31:51.719Z,93385.63
2023-01-07T07:34:21.688Z,93387.41
2023-01-07T07:36:53.052Z,93392.75
2023-01-07T07:39:22.964Z,93390.31
2023-01-07T07:41:53.459Z,93391.38
2023-01-07T07:44:23.481Z,93381.28
2023-01-07T07:46:53.435Z,93381.53
2023-01-07T07:49:23.258Z,93380.00
2023-01-07T07:51:54.566Z,93373.22
2023-01-07T07:54:24.597Z,93375.78
2023-01-07T07:56:54.489Z,93368.22
2023-01-07T07:59:27.492Z,93365.69
2023-01-07T08:01:57.558Z,93366.56
2023-01-07T08:04:29.166Z,93369.03
2023-01-07T08:07:00.718Z,93371.44
2023-01-07T08:09:30.605Z,93373.75
2023-01-07T08:12:00.497Z,93367.13
2023-01-07T08:14:30.442Z,93363.06
2023-01-07T08:17:00.306Z,93376.13
2023-01-07T08:19:30.188Z,93365.69
2023-01-07T08:22:01.625Z,93366.72
2023-01-07T08:24:31.399Z,93366.03
2023-01-07T08:27:01.251Z,93363.97
2023-01-07T08:29:31.146Z,93362.41
2023-01-07T08:32:01.044Z,93365.63
2023-01-07T08:34:30.997Z,93362.19
2023-01-07T08:37:02.279Z,93361.41
2023-01-07T08:39:32.281Z,93357.41
2023-01-07T08:42:02.137Z,93364.44
2023-01-07T08:44:32.824Z,93361.59
2023-01-07T08:47:02.999Z,93365.19
2023-01-07T08:49:33.362Z,93365.13
2023-01-07T08:52:04.639Z,93361.66
2023-01-07T08:54:34.466Z,93360.41
2023-01-07T08:57:04.404Z,93351.34
2023-01-07T08:59:34.326Z,93356.31
2023-01-07T09:02:04.216Z,93349.78
2023-01-07T09:04:34.324Z,93346.16
2023-01-07T09:07:05.537Z,93348.50
2023-01-07T09:09:35.337Z,93348.88
2023-01-07T09:12:05.400Z,93344.53
2023-01-07T09:14:35.224Z,93343.50
2023-01-07T09:17:05.054Z,93338.25
2023-01-07T09:19:35.059Z,93333.38
2023-01-07T09:22:06.305Z,93326.66
2023-01-07T09:24:36.260Z,93331.88
2023-01-07T09:27:06.442Z,93333.63
2023-01-07T09:29:37.104Z,93318.81
2023-01-07T09:32:06.957Z,93313.53
2023-01-07T09:34:38.220Z,93314.91
2023-01-07T09:37:09.768Z,93305.66
2023-01-07T09:39:39.890Z,93301.72
2023-01-07T09:42:22.511Z,93300.44
2023-01-07T09:45:07.105Z,93287.97
2023-01-07T09:47:39.106Z,93285.31
2023-01-07T09:51:50.164Z,93284.09
2023-01-07T09:54:29.258Z,93281.19
2023-01-07T09:56:59.203Z,93279.94
2023-01-07T09:59:29.128Z,93272.53
2023-01-07T10:02:09.564Z,93264.72
2023-01-07T10:04:50.019Z,93273.13
2023-01-07T10:07:34.304Z,93263.19
2023-01-07T10:10:17.140Z,93259.94
2023-01-07T10:13:00.101Z,93255.31
2023-01-07T10:15:46.580Z,93252.16
2023-01-07T10:18:33.559Z,93250.81
2023-01-07T10:21:17.285Z,93243.13
2023-01-07T10:23:54.159Z,93240.31
2023-01-07T10:26:34.049Z,93237.72
2023-01-07T10:29:11.583Z,93236.72
2023-01-07T10:31:42.178Z,93240.88
2023-01-07T10:34:18.899Z,93248.41
2023-01-07T10:37:03.029Z,93246.31
2023-01-07T10:39:47.580Z,93232.47
2023-01-07T10:42:27.185Z,93232.38
2023-01-07T10:45:53.944Z,93229.69
2023-01-07T10:48:45.066Z,93225.22
2023-01-07T10:51:41.404Z,93225.88
2023-01-07T10:54:30.403Z,93217.44
2023-01-07T10:57:11.358Z,93225.78
2023-01-07T10:59:41.665Z,93213.72
2023-01-07T11:02:19.969Z,93213.63
2023-01-07T11:04:50.166Z,93220.59
2023-01-07T11:07:32.029Z,93216.16
2023-01-07T11:10:05.689Z,93203.81
2023-01-07T11:12:43.481Z,93202.94
2023-01-07T11:15:22.460Z,93203.97
2023-01-07T11:17:56.370Z,93196.25
2023-01-07T11:20:51.740Z,93199.88
2023-01-07T11:23:44.274Z,93199.88
2023-01-07T11:26:19.123Z,93194.88
2023-01-07T11:28:56.563Z,93195.41
2023-01-07T11:31:47.836Z,93196.25
2023-01-07T11:34:27.632Z,93190.50
2023-01-07T11:36:57.853Z,93190.50
2023-01-07T11:39:31.023Z,93179.25
2023-01-07T11:42:24.545Z,93178.59
2023-01-07T11:45:16.152Z,93178.72
2023-01-07T11:47:54.146Z,93174.16
2023-01-07T11:50:31.402Z,93172.28
2023-01-07T11:53:04.565Z,93171.38
2023-01-07T11:55:34.528Z,93167.94
2023-01-07T11:58:29.589Z,93159.41
2023-01-07T12:01:18.779Z,93162.09
2023-01-07T12:04:14.615Z,93153.53
2023-01-07T12:06:49.347Z,93157.19
2023-01-07T12:09:29.685Z,93157.06
2023-01-07T12:12:02.851Z,93154.09
2023-01-07T12:14:35.474Z,93156.69
2023-01-07T12:17:15.720Z,93153.25
2023-01-07T12:20:11.963Z,93150.84
2023-01-07T12:22:58.540Z,93142.03
2023-01-07T12:25:45.919Z,93148.63
2023-01-07T12:28:19.444Z,93137.38
2023-01-07T12:31:27.766Z,93140.25
2023-01-07T12:34:09.790Z,93138.78
2023-01-07T12:36:47.984Z,93140.53
2023-01-07T12:39:27.905Z,93149.16
2023-01-07T12:42:06.201Z,93150.38
2023-01-07T12:44:41.334Z,93149.00
2023-01-07T12:47:30.690Z,93148.72
2023-01-07T12:51:55.626Z,93137.50
2023-01-07T12:54:46.630Z,93140.25
2023-01-07T12:57:23.826Z,93138.78
2023-01-07T13:00:05.388Z,93142.00
2023-01-07T13:02:45.510Z,93140.78
2023-01-07T13:05:19.636Z,93130.88
2023-01-07T13:08:05.099Z,93149.50
2023-01-07T13:10:42.448Z,93144.56
2023-01-07T13:13:22.739Z,93141.13
2023-01-07T13:15:52.575Z,93145.31
2023-01-07T13:18:24.016Z,93144.00
2023-01-07T13:21:08.096Z,93140.34
2023-01-07T13:24:08.917Z,93145.03
2023-01-07T13:26:51.343Z,93145.81
2023-01-07T13:29:59.641Z,93143.47
2023-01-07T13:32:55.860Z,93144.84
2023-01-07T13:36:11.995Z,93147.72
2023-01-07T13:39:12.096Z,93153.84
2023-01-07T13:42:03.403Z,93144.97
2023-01-07T13:45:00.275Z,93145.50
2023-01-07T13:47:44.075Z,93148.16
2023-01-07T13:50:27.583Z,93150.88
2023-01-07T13:53:06.227Z,93144.13
2023-01-07T13:55:46.415Z,93146.91
2023-01-07T13:58:46.336Z,93153.44
2023-01-07T14:01:18.963Z,93144.59
2023-01-07T14:03:51.245Z,93152.63
2023-01-07T14:06:44.415Z,93151.22
2023-01-07T14:09:37.342Z,93146.38
2023-01-07T14:13:08.371Z,93152.13
2023-01-07T14:16:11.248Z,93153.31
2023-01-07T14:19:12.637Z,93158.09
2023-01-07T14:22:06.986Z,93157.75
2023-01-07T14:25:09.491Z,93159.81
2023-01-07T14:28:01.231Z,93155.28
2023-01-07T14:30:37.046Z,93163.41
2023-01-07T14:33:08.907Z,93160.31
2023-01-07T14:35:42.154Z,93162.69
2023-01-07T14:38:59.797Z,93156.88
2023-01-07T14:41:29.612Z,93167.94
2023-01-07T14:44:30.804Z,93175.50
2023-01-07T14:47:00.817Z,93178.44
2023-01-07T14:49:59.069Z,93177.22
2023-01-07T14:53:18.232Z,93188.94
2023-01-07T14:56:28.350Z,93186.19
2023-01-07T14:59:23.239Z,93185.25
2023-01-07T15:02:33.204Z,93190.94
2023-01-07T15:06:02.528Z,93192.56
2023-01-07T15:09:04.843Z,93191.38
2023-01-07T15:11:53.981Z,93196.34
2023-01-07T15:14:49.079Z,93181.31
2023-01-07T15:17:19.826Z,93191.31
2023-01-07T15:19:50.029Z,93193.53
2023-01-07T15:22:50.748Z,93198.25
2023-01-07T15:25:36.639Z,93209.25
2023-01-07T15:28:17.403Z,93200.41
2023-01-07T15:31:01.431Z,93204.03
2023-01-07T15:34:08.094Z,93212.94
2023-01-07T15:36:44.306Z,93206.69
2023-01-07T15:39:23.738Z,93211.75
2023-01-07T15:41:56.200Z,93215.91
2023-01-07T15:44:29.684Z,93209.38
2023-01-07T15:47:01.198Z,93208.84
2023-01-07T15:51:48.223Z,93215.97
2023-01-07T15:54:36.027Z,93220.34
2023-01-07T15:57:11.185Z,93224.00
2023-01-07T15:59:46.554Z,93220.78
2023-01-07T16:02:25.048Z,93226.31
2023-01-07T16:04:57.763Z,93218.91
2023-01-07T16:07:33.807Z,93222.50
2023-01-07T16:10:04.249Z,93223.69
2023-01-07T16:12:38.688Z,93223.13
2023-01-07T16:15:33.167Z,93223.34
2023-01-07T16:18:05.280Z,93227.75
2023-01-07T16:20:39.146Z,93223.72
2023-01-07T16:23:22.983Z,93225.41
2023-01-07T16:25:58.805Z,93229.00
2023-01-07T16:28:33.348Z,93229.16
2023-01-07T16:31:07.395Z,93225.75
2023-01-07T16:33:38.077Z,93221.63
2023-01-07T16:36:15.606Z,93225.38
2023-01-07T16:38:48.466Z,93233.25
2023-01-07T16:41:23.482Z,93233.41
2023-01-07T16:43:55.642Z,93236.94
2023-01-07T16:46:28.859Z,93235.97
2023-01-07T16:49:32.575Z,93238.81
2023-01-07T16:52:14.452Z,93231.38
2023-01-07T16:54:46.786Z,93241.69
2023-01-07T16:57:34.590Z,93244.22
2023-01-07T17:00:07.836Z,93239.97
2023-01-07T17:02:43.960Z,93242.81
2023-01-07T17:05:19.345Z,93239.66
2023-01-07T17:07:51.855Z,93250.13
2023-01-07T17:10:28.859Z,93250.09
2023-01-07T17:13:02.083Z,93248.59
2023-01-07T17:15:39.675Z,93253.81
2023-01-07T17:18:31.419Z,93250.41
2023-01-07T17:21:03.097Z,93249.56
2023-01-07T17:23:45.981Z,93254.66
2023-01-07T17:26:24.422Z,93248.88
2023-01-07T17:28:57.263Z,93249.97
2023-01-07T17:31:27.073Z,93253.66
2023-01-07T17:33:58.031Z,93253.88
2023-01-07T17:36:29.459Z,93261.72
2023-01-07T17:38:59.406Z,93261.81
2023-01-07T17:41:48.286Z,93259.38
2023-01-07T17:44:18.301Z,93267.09
2023-01-07T17:46:48.178Z,93262.69
2023-01-07T17:49:19.161Z,93250.53
2023-01-07T17:51:52.661Z,93254.75
2023-01-07T17:54:26.623Z,93255.63
2023-01-07T17:56:57.930Z,93252.38
2023-01-07T17:59:30.808Z,93259.47
2023-01-07T18:02:00.964Z,93252.84
2023-01-07T18:04:32.968Z,93261.69
2023-01-07T18:07:02.750Z,93261.69
2023-01-07T18:09:34.372Z,93260.09
2023-01-07T18:12:22.927Z,93259.31
2023-01-07T18:14:54.657Z,93256.69
2023-01-07T18:17:25.284Z,93262.72
2023-01-07T18:19:55.653Z,93260.31
2023-01-07T18:22:26.838Z,93261.28
2023-01-07T18:24:56.785Z,93261.44
2023-01-07T18:27:27.959Z,93269.91
2023-01-07T18:29:58.479Z,93262.16
2023-01-07T18:32:28.407Z,93260.53
2023-01-07T18:34:58.284Z,93261.44
2023-01-07T18:37:28.227Z,93265.00
2023-01-07T18:40:02.492Z,93272.72
2023-01-07T18:42:34.957Z,93273.69
2023-01-07T18:45:05.970Z,93272.94
2023-01-07T18:47:36.085Z,93270.44
2023-01-07T18:51:48.391Z,93273.75
2023-01-07T18:54:18.525Z,93276.25
2023-01-07T18:56:48.410Z,93274.59
2023-01-07T18:59:18.244Z,93273.00
2023-01-07T19:01:48.184Z,93273.97
2023-01-07T19:04:18.130Z,93268.19
2023-01-07T19:06:49.549Z,93269.97
2023-01-07T19:09:19.445Z,93267.44
2023-01-07T19:11:49.824Z,93270.00
2023-01-07T19:14:19.764Z,93270.91
2023-01-07T19:16:51.082Z,93267.41
2023-01-07T19:19:21.072Z,93274.16
2023-01-07T19:21:52.794Z,93272.56
2023-01-07T19:24:23.909Z,93266.72
2023-01-07T19:26:53.902Z,93265.84
2023-01-07T19:29:23.775Z,93264.00
2023-01-07T19:31:53.604Z,93268.47
2023-01-07T19:34:23.578Z,93262.63
2023-01-07T19:36:54.955Z,93264.38
2023-01-07T19:39:26.301Z,93266.03
2023-01-07T19:41:56.144Z,93270.25
2023-01-07T19:44:26.069Z,93267.50
2023-01-07T19:46:55.846Z,93273.41
2023-01-07T19:49:25.632Z,93269.38
2023-01-07T19:51:57.069Z,93271.16
2023-01-07T19:54:26.947Z,93267.81
2023-01-07T19:56:56.913Z,93265.31
2023-01-07T19:59:27.746Z,93267.16
2023-01-07T20:01:57.696Z,93268.97
2023-01-07T20:04:27.787Z,93269.00
2023-01-07T20:06:59.148Z,93269.09
2023-01-07T20:09:28.963Z,93277.63
2023-01-07T20:11:58.771Z,93271.59
2023-01-07T20:14:28.678Z,93268.19
2023-01-07T20:16:58.611Z,93272.56
2023-01-07T20:19:30.118Z,93272.75
2023-01-07T20:22:01.467Z,93277.94
2023-01-07T20:24:33.210Z,93278.00
2023-01-07T20:27:03.117Z,93279.75
2023-01-07T20:29:33.106Z,93278.84
2023-01-07T20:32:07.688Z,93280.38
2023-01-07T20:34:37.497Z,93278.75
2023-01-07T20:37:08.765Z,93281.41
2023-01-07T20:39:38.600Z,93285.69
2023-01-07T20:42:08.757Z,93283.97
2023-01-07T20:44:39.816Z,93284.88
2023-01-07T20:47:09.697Z,93287.59
2023-01-07T20:49:39.610Z,93284.22
2023-01-07T20:52:11.007Z,93281.78
2023-01-07T20:54:40.789Z,93288.69
2023-01-07T20:57:10.884Z,93294.59
2023-01-07T20:59:40.767Z,93291.19
2023-01-07T21:02:17.787Z,93286.91
2023-01-07T21:04:47.758Z,93288.69
2023-01-07T21:07:19.199Z,93285.28
2023-01-07T21:09:50.077Z,93285.28
2023-01-07T21:12:20.077Z,93290.47
2023-01-07T21:14:49.774Z,93287.09
2023-01-07T21:17:19.617Z,93290.53
2023-01-07T21:19:49.521Z,93285.50
2023-01-07T21:22:20.845Z,93286.41
2023-01-07T21:24:50.666Z,93291.59
2023-01-07T21:27:20.676Z,93287.38
2023-01-07T21:29:51.464Z,93290.78
2023-01-07T21:32:21.378Z,93280.63
2023-01-07T21:34:51.227Z,93285.75
2023-01-07T21:37:22.526Z,93284.09
2023-01-07T21:39:52.698Z,93278.06
2023-01-07T21:42:22.696Z,93279.69
2023-01-07T21:44:52.640Z,93286.53
2023-01-07T21:47:22.497Z,93279.69
2023-01-07T21:51:45.512Z,93282.31
2023-01-07T21:54:15.316Z,93273.00
2023-01-07T21:56:45.115Z,93275.50
2023-01-07T21:59:15.082Z,93276.34
2023-01-07T22:01:45.007Z,93273.06
2023-01-07T22:04:15.063Z,93272.22
2023-01-07T22:06:46.457Z,93274.84
2023-01-07T22:09:18.618Z,93267.16
2023-01-07T22:11:48.598Z,93268.78
2023-01-07T22:14:20.403Z,93266.28
2023-01-07T22:16:50.365Z,93260.44
2023-01-07T22:19:20.439Z,93265.66
2023-01-07T22:21:51.747Z,93264.84
2023-01-07T22:24:21.855Z,93254.63
2023-01-07T22:26:53.016Z,93251.19
2023-01-07T22:29:23.044Z,93250.22
2023-01-07T22:31:54.294Z,93248.28
2023-01-07T22:34:24.205Z,93246.59
2023-01-07T22:36:59.928Z,93237.31
2023-01-07T22:39:34.954Z,93240.78
2023-01-07T22:42:10.319Z,93241.72
2023-01-07T22:44:45.240Z,93239.25
2023-01-07T22:47:18.956Z,93225.69
2023-01-07T22:49:50.431Z,93229.16
2023-01-07T22:52:21.982Z,93226.59
2023-01-07T22:54:51.896Z,93224.97
2023-01-07T22:57:22.645Z,93228.41
2023-01-07T22:59:52.578Z,93217.47
2023-01-07T23:02:22.497Z,93223.31
2023-01-07T23:04:52.434Z,93223.13
2023-01-07T23:07:23.879Z,93218.19
2023-01-07T23:09:53.867Z,93207.97
2023-01-07T23:12:23.678Z,93210.25
2023-01-07T23:14:53.502Z,93203.34
2023-01-07T23:17:23.321Z,93209.50
2023-01-07T23:19:53.294Z,93196.06
2023-01-07T23:22:24.681Z,93202.22
2023-01-07T23:24:54.591Z,93200.53
2023-01-07T23:27:24.433Z,93197.19
2023-01-07T23:29:55.690Z,93198.88
2023-01-07T23:32:25.647Z,93192.88
2023-01-07T23:34:55.621Z,93197.22
2023-01-07T23:37:27.247Z,93198.16
2023-01-07T23:39:57.224Z,93197.22
2023-01-07T23:42:27.067Z,93192.13
2023-01-07T23:44:57.399Z,93192.38
2023-01-07T23:47:27.238Z,93194.03
2023-01-07T23:49:57.061Z,93196.59
2023-01-07T23:52:28.419Z,93191.53
2023-01-07T23:54:58.311Z,93192.53
2023-01-07T23:57:29.121Z,93195.03
2023-01-07T23:59:58.897Z,93191.63
